createdAt,value
2022-08-17T00:00:05.780Z,19.14
2022-08-17T00:01:05.596Z,18.85
2022-08-17T00:02:04.962Z,18.68
2022-08-17T00:03:10.300Z,18.97
2022-08-17T00:04:11.643Z,18.98
2022-08-17T00:05:08.738Z,18.83
2022-08-17T00:06:27.442Z,18.85
2022-08-17T00:07:24.033Z,18.79
2022-08-17T00:08:25.806Z,18.88
2022-08-17T00:09:22.420Z,18.85
2022-08-17T00:10:19.338Z,18.96
2022-08-17T00:11:21.379Z,18.95
2022-08-17T00:12:42.663Z,18.96
2022-08-17T00:13:38.913Z,18.85
2022-08-17T00:14:36.193Z,18.73
2022-08-17T00:15:32.928Z,18.90
2022-08-17T00:16:55.368Z,18.95
2022-08-17T00:17:52.317Z,19.09
2022-08-17T00:19:05.710Z,19.11
2022-08-17T00:20:06.144Z,19.11
2022-08-17T00:21:10.434Z,19.04
2022-08-17T00:22:33.253Z,19.05
2022-08-17T00:23:25.430Z,19.05
2022-08-17T00:24:22.130Z,19.17
2022-08-17T00:25:20.148Z,19.12
2022-08-17T00:26:43.701Z,19.15
2022-08-17T00:27:36.949Z,19.12
2022-08-17T00:28:33.615Z,19.09
2022-08-17T00:29:30.209Z,19.14
2022-08-17T00:30:26.937Z,19.01
2022-08-17T00:31:24.551Z,19.24
2022-08-17T00:33:23.254Z,19.18
2022-08-17T00:33:40.260Z,19.22
2022-08-17T00:34:36.915Z,19.21
2022-08-17T00:35:34.376Z,19.20
2022-08-17T00:36:31.052Z,18.98
2022-08-17T00:37:28.029Z,19.02
2022-08-17T00:38:25.965Z,19.26
2022-08-17T00:39:22.641Z,19.12
2022-08-17T00:40:20.235Z,18.96
2022-08-17T00:41:20.521Z,18.70
2022-08-17T00:42:19.323Z,18.56
2022-08-17T00:43:20.601Z,18.79
2022-08-17T00:44:17.268Z,18.86
2022-08-17T00:45:15.916Z,18.88
2022-08-17T00:46:22.356Z,18.82
2022-08-17T00:47:19.004Z,18.88
2022-08-17T00:48:29.471Z,18.85
2022-08-17T00:49:27.366Z,18.88
2022-08-17T00:50:24.223Z,18.95
2022-08-17T00:51:39.224Z,19.16
2022-08-17T00:52:42.519Z,19.18
2022-08-17T00:53:43.526Z,18.99
2022-08-17T00:54:43.642Z,18.96
2022-08-17T00:55:40.619Z,18.97
2022-08-17T00:56:43.146Z,19.03
2022-08-17T00:57:42.738Z,19.01
2022-08-17T00:58:40.197Z,19.08
2022-08-17T00:59:41.348Z,19.23
2022-08-17T01:00:43.250Z,19.37
2022-08-17T01:01:40.688Z,19.10
2022-08-17T01:02:43.230Z,18.91
2022-08-17T01:03:40.709Z,18.98
2022-08-17T01:04:37.788Z,18.84
2022-08-17T01:05:38.808Z,18.54
2022-08-17T01:06:41.529Z,18.47
2022-08-17T01:07:38.800Z,18.39
2022-08-17T01:08:36.544Z,18.48
2022-08-17T01:09:34.123Z,18.56
2022-08-17T01:10:58.556Z,18.57
2022-08-17T01:11:54.339Z,18.75
2022-08-17T01:12:51.667Z,18.81
2022-08-17T01:13:48.630Z,18.78
2022-08-17T01:14:45.287Z,18.81
2022-08-17T01:15:48.442Z,18.79
2022-08-17T01:16:45.449Z,18.61
2022-08-17T01:17:43.299Z,18.52
2022-08-17T01:18:40.090Z,18.43
2022-08-17T01:19:39.554Z,18.58
2022-08-17T01:20:46.670Z,18.61
2022-08-17T01:22:11.337Z,18.67
2022-08-17T01:23:07.982Z,18.66
2022-08-17T01:24:05.185Z,18.65
2022-08-17T01:25:04.719Z,18.82
2022-08-17T01:26:03.147Z,18.80
2022-08-17T01:27:00.570Z,18.72
2022-08-17T01:27:57.247Z,18.42
2022-08-17T01:28:55.901Z,18.48
2022-08-17T01:29:58.766Z,18.43
2022-08-17T01:30:58.778Z,18.46
2022-08-17T01:32:00.131Z,18.27
2022-08-17T01:32:56.811Z,18.61
2022-08-17T01:33:53.587Z,18.76
2022-08-17T01:34:51.014Z,18.99
2022-08-17T01:35:47.717Z,19.18
2022-08-17T01:36:47.065Z,19.14
2022-08-17T01:37:43.781Z,18.91
2022-08-17T01:38:40.540Z,18.87
2022-08-17T01:39:51.586Z,18.71
2022-08-17T01:40:58.028Z,18.50
2022-08-17T01:42:04.616Z,18.22
2022-08-17T01:43:31.695Z,18.07
2022-08-17T01:44:28.421Z,17.97
2022-08-17T01:45:28.399Z,18.01
2022-08-17T01:46:29.404Z,18.08
2022-08-17T01:47:26.139Z,17.97
2022-08-17T01:48:24.237Z,18.13
2022-08-17T01:49:20.984Z,18.19
2022-08-17T01:50:23.993Z,18.18
2022-08-17T01:51:21.301Z,18.10
2022-08-17T01:52:18.279Z,18.01
2022-08-17T01:53:39.757Z,17.96
2022-08-17T01:54:39.893Z,17.83
2022-08-17T01:56:01.359Z,17.65
2022-08-17T01:56:58.056Z,17.64
2022-08-17T01:57:54.851Z,17.63
2022-08-17T01:58:52.677Z,17.37
2022-08-17T01:59:49.545Z,17.64
2022-08-17T02:01:00.962Z,17.47
2022-08-17T02:01:58.472Z,17.92
2022-08-17T02:02:55.472Z,18.03
2022-08-17T02:03:59.601Z,17.82
2022-08-17T02:04:58.848Z,17.81
2022-08-17T02:05:55.941Z,17.87
2022-08-17T02:06:54.437Z,17.99
2022-08-17T02:08:00.251Z,18.06
2022-08-17T02:09:03.006Z,18.06
2022-08-17T02:10:00.425Z,17.92
2022-08-17T02:10:57.137Z,17.83
2022-08-17T02:11:56.390Z,17.89
2022-08-17T02:12:53.503Z,18.04
2022-08-17T02:13:55.129Z,18.25
2022-08-17T02:14:59.680Z,18.43
2022-08-17T02:15:57.546Z,18.11
2022-08-17T02:16:54.238Z,17.88
2022-08-17T02:17:54.835Z,17.51
2022-08-17T02:18:51.659Z,17.57
2022-08-17T02:19:48.440Z,17.61
2022-08-17T02:20:45.040Z,17.67
2022-08-17T02:21:44.268Z,17.43
2022-08-17T02:22:44.356Z,17.24
2022-08-17T02:23:44.899Z,17.46
2022-08-17T02:24:58.600Z,17.36
2022-08-17T02:26:00.392Z,17.50
2022-08-17T02:26:57.105Z,17.72
2022-08-17T02:27:53.759Z,17.71
2022-08-17T02:28:50.971Z,17.62
2022-08-17T02:29:48.198Z,17.44
2022-08-17T02:30:59.148Z,17.22
2022-08-17T02:31:58.626Z,17.35
2022-08-17T02:32:56.171Z,17.38
2022-08-17T02:33:56.908Z,17.45
2022-08-17T02:35:02.201Z,17.30
2022-08-17T02:35:58.930Z,17.23
2022-08-17T02:36:55.678Z,17.29
2022-08-17T02:37:55.683Z,17.43
2022-08-17T02:38:52.596Z,17.44
2022-08-17T02:39:49.267Z,17.53
2022-08-17T02:40:46.062Z,17.41
2022-08-17T02:41:44.613Z,17.37
2022-08-17T02:42:43.599Z,17.30
2022-08-17T02:43:40.337Z,17.13
2022-08-17T02:44:39.827Z,17.24
2022-08-17T02:45:37.098Z,17.16
2022-08-17T02:46:34.233Z,17.40
2022-08-17T02:47:31.355Z,17.07
2022-08-17T02:48:30.701Z,17.23
2022-08-17T02:49:28.548Z,17.24
2022-08-17T02:50:26.213Z,17.15
2022-08-17T02:51:23.289Z,16.92
2022-08-17T02:52:42.848Z,17.00
2022-08-17T02:53:36.483Z,17.11
2022-08-17T02:54:40.152Z,17.14
2022-08-17T02:55:41.352Z,17.19
2022-08-17T02:56:38.030Z,17.20
2022-08-17T02:57:35.089Z,17.27
2022-08-17T02:58:35.181Z,17.29
2022-08-17T02:59:32.527Z,17.26
2022-08-17T03:00:36.409Z,17.22
2022-08-17T03:01:33.205Z,17.42
2022-08-17T03:02:29.987Z,17.53
2022-08-17T03:03:26.942Z,17.35
2022-08-17T03:04:23.789Z,17.19
2022-08-17T03:05:23.754Z,17.09
2022-08-17T03:06:20.474Z,16.86
2022-08-17T03:07:17.283Z,16.87
2022-08-17T03:08:13.952Z,16.96
2022-08-17T03:09:10.598Z,17.04
2022-08-17T03:10:08.823Z,17.11
2022-08-17T03:11:05.544Z,17.13
2022-08-17T03:12:07.236Z,16.83
2022-08-17T03:13:04.107Z,16.87
2022-08-17T03:14:00.835Z,16.91
2022-08-17T03:14:57.456Z,17.02
2022-08-17T03:15:54.086Z,16.86
2022-08-17T03:16:51.125Z,17.30
2022-08-17T03:17:48.485Z,17.48
2022-08-17T03:18:45.111Z,17.36
2022-08-17T03:19:43.142Z,17.26
2022-08-17T03:20:41.157Z,17.09
2022-08-17T03:21:37.785Z,17.22
2022-08-17T03:22:43.276Z,17.29
2022-08-17T03:23:44.735Z,17.29
2022-08-17T03:24:41.894Z,17.15
2022-08-17T03:25:43.383Z,17.28
2022-08-17T03:26:40.889Z,17.20
2022-08-17T03:27:38.237Z,17.18
2022-08-17T03:28:39.406Z,17.12
2022-08-17T03:29:36.035Z,16.90
2022-08-17T03:30:33.771Z,17.08
2022-08-17T03:31:31.480Z,17.06
2022-08-17T03:32:28.151Z,17.07
2022-08-17T03:33:25.019Z,17.12
2022-08-17T03:34:21.738Z,16.91
2022-08-17T03:35:21.009Z,17.09
2022-08-17T03:36:17.694Z,17.07
2022-08-17T03:37:14.862Z,17.18
2022-08-17T03:38:15.129Z,17.46
2022-08-17T03:39:12.064Z,17.58
2022-08-17T03:40:10.238Z,17.56
2022-08-17T03:41:07.272Z,17.51
2022-08-17T03:42:31.508Z,17.35
2022-08-17T03:43:31.772Z,17.34
2022-08-17T03:44:28.447Z,17.50
2022-08-17T03:45:44.198Z,17.61
2022-08-17T03:46:59.453Z,17.56
2022-08-17T03:48:14.630Z,17.58
2022-08-17T03:49:30.118Z,17.63
2022-08-17T03:50:45.517Z,17.61
2022-08-17T03:52:01.196Z,17.68
2022-08-17T03:53:16.287Z,17.53
2022-08-17T03:54:31.588Z,17.49
2022-08-17T03:55:46.841Z,17.66
2022-08-17T03:56:46.946Z,17.68
2022-08-17T03:57:43.545Z,17.51
2022-08-17T03:58:40.214Z,17.33
2022-08-17T03:59:37.696Z,17.12
2022-08-17T04:00:36.270Z,17.28
2022-08-17T04:01:36.397Z,17.08
2022-08-17T04:02:34.171Z,17.18
2022-08-17T04:03:30.953Z,17.16
2022-08-17T04:04:28.085Z,17.09
2022-08-17T04:05:24.776Z,16.85
2022-08-17T04:06:21.383Z,17.04
2022-08-17T04:07:20.335Z,17.20
2022-08-17T04:08:16.992Z,17.22
2022-08-17T04:09:14.349Z,17.36
2022-08-17T04:10:11.106Z,17.30
2022-08-17T04:11:07.816Z,17.31
2022-08-17T04:12:05.407Z,17.54
2022-08-17T04:13:02.226Z,17.66
2022-08-17T04:13:58.936Z,17.68
2022-08-17T04:14:55.570Z,17.65
2022-08-17T04:15:52.261Z,17.61
2022-08-17T04:16:48.875Z,17.72
2022-08-17T04:17:45.883Z,17.73
2022-08-17T04:18:42.506Z,17.95
2022-08-17T04:19:39.155Z,17.92
2022-08-17T04:20:35.760Z,17.93
2022-08-17T04:21:32.782Z,18.02
2022-08-17T04:22:32.344Z,18.10
2022-08-17T04:23:33.765Z,18.21
2022-08-17T04:24:30.701Z,18.28
2022-08-17T04:25:28.776Z,18.35
2022-08-17T04:26:52.217Z,18.39
2022-08-17T04:27:42.269Z,18.39
2022-08-17T04:28:38.921Z,18.44
2022-08-17T04:29:54.430Z,18.42
2022-08-17T04:30:52.007Z,18.38
2022-08-17T04:31:48.670Z,18.66
2022-08-17T04:33:06.185Z,19.05
2022-08-17T04:34:03.404Z,19.16
2022-08-17T04:35:00.912Z,19.39
2022-08-17T04:36:00.683Z,19.32
2022-08-17T04:36:57.338Z,19.00
2022-08-17T04:37:54.486Z,18.95
2022-08-17T04:38:51.238Z,18.89
2022-08-17T04:40:07.940Z,18.75
2022-08-17T04:41:24.061Z,18.58
2022-08-17T04:42:20.673Z,18.53
2022-08-17T04:43:20.460Z,18.51
2022-08-17T04:44:28.320Z,18.53
2022-08-17T04:45:34.517Z,18.63
2022-08-17T04:46:36.321Z,18.82
2022-08-17T04:47:32.972Z,18.97
2022-08-17T04:48:36.605Z,19.02
2022-08-17T04:49:35.116Z,19.03
2022-08-17T04:50:34.472Z,19.05
2022-08-17T04:51:54.490Z,19.25
2022-08-17T04:52:53.495Z,19.34
2022-08-17T04:53:54.974Z,19.40
2022-08-17T04:54:51.754Z,19.39
2022-08-17T04:55:48.809Z,19.41
2022-08-17T04:56:45.942Z,19.45
2022-08-17T04:57:45.068Z,19.46
2022-08-17T04:58:43.528Z,19.26
2022-08-17T04:59:40.123Z,19.28
2022-08-17T05:00:38.227Z,19.17
2022-08-17T05:01:37.185Z,19.33
2022-08-17T05:02:33.843Z,19.38
2022-08-17T05:03:31.268Z,19.51
2022-08-17T05:04:34.061Z,19.49
2022-08-17T05:05:36.318Z,19.53
2022-08-17T05:06:33.436Z,19.55
2022-08-17T05:07:31.685Z,19.48
2022-08-17T05:08:28.545Z,19.53
2022-08-17T05:09:25.236Z,19.46
2022-08-17T05:10:26.896Z,19.59
2022-08-17T05:11:26.041Z,19.59
2022-08-17T05:12:22.649Z,19.78
2022-08-17T05:13:23.101Z,19.80
2022-08-17T05:14:19.772Z,19.88
2022-08-17T05:15:16.408Z,19.95
2022-08-17T05:16:13.181Z,19.97
2022-08-17T05:17:11.170Z,20.00
2022-08-17T05:18:08.973Z,19.79
2022-08-17T05:19:05.639Z,20.16
2022-08-17T05:20:02.392Z,20.18
2022-08-17T05:20:59.000Z,20.20
2022-08-17T05:21:55.614Z,20.28
2022-08-17T05:22:54.696Z,20.27
2022-08-17T05:23:56.330Z,20.35
2022-08-17T05:24:55.649Z,20.41
2022-08-17T05:25:55.459Z,20.41
2022-08-17T05:26:52.108Z,19.98
2022-08-17T05:27:49.015Z,20.47
2022-08-17T05:28:46.040Z,20.59
2022-08-17T05:29:42.686Z,20.68
2022-08-17T05:30:42.058Z,20.69
2022-08-17T05:31:38.665Z,20.74
2022-08-17T05:32:38.838Z,20.81
2022-08-17T05:33:42.670Z,20.87
2022-08-17T05:34:41.102Z,20.87
2022-08-17T05:35:42.669Z,20.89
2022-08-17T05:36:44.128Z,20.94
2022-08-17T05:37:41.084Z,21.05
2022-08-17T05:38:38.044Z,21.18
2022-08-17T05:39:34.733Z,21.31
2022-08-17T05:40:32.833Z,21.25
2022-08-17T05:41:29.938Z,21.39
2022-08-17T05:42:26.617Z,21.37
2022-08-17T05:43:29.888Z,21.48
2022-08-17T05:44:26.524Z,21.62
2022-08-17T05:45:39.960Z,21.69
2022-08-17T05:46:43.662Z,21.66
2022-08-17T05:47:40.488Z,21.79
2022-08-17T05:48:40.576Z,21.60
2022-08-17T05:49:37.238Z,21.72
2022-08-17T05:50:42.021Z,21.73
2022-08-17T05:52:02.199Z,21.65
2022-08-17T05:53:20.882Z,21.85
2022-08-17T05:54:26.450Z,21.86
2022-08-17T05:55:41.410Z,21.89
2022-08-17T05:56:41.040Z,22.08
2022-08-17T05:57:54.230Z,22.21
2022-08-17T05:59:03.323Z,22.32
2022-08-17T06:00:15.025Z,22.16
2022-08-17T06:01:38.511Z,22.31
2022-08-17T06:03:00.112Z,22.40
2022-08-17T06:04:21.411Z,22.13
2022-08-17T06:05:18.141Z,22.43
2022-08-17T06:06:36.364Z,22.41
2022-08-17T06:07:49.778Z,22.63
2022-08-17T06:09:14.071Z,22.85
2022-08-17T06:10:31.890Z,22.87
2022-08-17T06:11:58.815Z,23.00
2022-08-17T06:13:45.113Z,23.13
2022-08-17T06:15:01.509Z,23.37
2022-08-17T06:16:31.160Z,23.22
2022-08-17T06:17:31.632Z,23.05
2022-08-17T06:18:36.383Z,23.27
2022-08-17T06:19:42.256Z,23.39
2022-08-17T06:20:54.327Z,23.25
2022-08-17T06:21:54.894Z,23.20
2022-08-17T06:22:58.884Z,23.22
2022-08-17T06:24:08.265Z,22.96
2022-08-17T06:25:19.128Z,22.94
2022-08-17T06:26:25.903Z,22.86
2022-08-17T06:27:46.384Z,23.10
2022-08-17T06:29:18.546Z,23.12
2022-08-17T06:30:26.191Z,23.27
2022-08-17T06:31:29.314Z,23.49
2022-08-17T06:32:26.252Z,23.51
2022-08-17T06:33:36.036Z,23.68
2022-08-17T06:34:33.980Z,23.63
2022-08-17T06:35:46.119Z,23.50
2022-08-17T06:37:11.236Z,23.59
2022-08-17T06:38:07.790Z,23.40
2022-08-17T06:39:10.437Z,23.56
2022-08-17T06:40:38.094Z,23.74
2022-08-17T06:41:38.143Z,23.85
2022-08-17T06:43:02.424Z,24.03
2022-08-17T06:44:42.320Z,23.90
2022-08-17T06:45:52.980Z,23.96
2022-08-17T06:46:58.269Z,24.24
2022-08-17T06:48:04.043Z,24.17
2022-08-17T06:49:12.579Z,24.15
2022-08-17T06:50:15.463Z,23.94
2022-08-17T06:51:24.506Z,24.14
2022-08-17T06:52:46.026Z,23.96
2022-08-17T06:53:47.716Z,24.23
2022-08-17T06:54:50.379Z,24.51
2022-08-17T06:56:00.321Z,24.14
2022-08-17T06:57:18.616Z,24.18
2022-08-17T06:58:21.140Z,24.38
2022-08-17T06:59:25.338Z,24.31
2022-08-17T07:00:26.748Z,24.29
2022-08-17T07:01:31.700Z,24.37
2022-08-17T07:02:54.347Z,24.51
2022-08-17T07:04:00.212Z,24.26
2022-08-17T07:05:02.555Z,24.67
2022-08-17T07:06:08.353Z,24.81
2022-08-17T07:07:27.585Z,24.71
2022-08-17T07:08:51.220Z,24.69
2022-08-17T07:09:48.071Z,24.94
2022-08-17T07:10:55.898Z,25.40
2022-08-17T07:12:11.267Z,25.32
2022-08-17T07:13:20.619Z,25.50
2022-08-17T07:14:38.671Z,25.07
2022-08-17T07:15:42.994Z,25.36
2022-08-17T07:16:48.944Z,25.14
2022-08-17T07:17:49.074Z,25.25
2022-08-17T07:18:46.638Z,24.92
2022-08-17T07:19:47.567Z,25.03
2022-08-17T07:20:51.356Z,25.07
2022-08-17T07:22:03.846Z,25.31
2022-08-17T07:23:26.848Z,25.56
2022-08-17T07:24:57.321Z,25.34
2022-08-17T07:26:04.356Z,25.52
2022-08-17T07:27:22.930Z,25.89
2022-08-17T07:28:23.043Z,25.35
2022-08-17T07:29:20.056Z,25.40
2022-08-17T07:30:19.406Z,25.90
2022-08-17T07:31:17.608Z,26.00
2022-08-17T07:32:20.224Z,25.67
2022-08-17T07:33:29.135Z,25.77
2022-08-17T07:34:25.903Z,25.90
2022-08-17T07:35:37.680Z,25.75
2022-08-17T07:36:34.862Z,25.69
2022-08-17T07:37:33.751Z,26.04
2022-08-17T07:38:35.696Z,26.19
2022-08-17T07:39:32.711Z,26.33
2022-08-17T07:40:35.242Z,26.01
2022-08-17T07:41:57.863Z,25.88
2022-08-17T07:43:05.077Z,26.02
2022-08-17T07:44:02.023Z,26.26
2022-08-17T07:45:18.698Z,26.04
2022-08-17T07:47:06.570Z,25.88
2022-08-17T07:48:19.508Z,26.25
2022-08-17T07:49:21.348Z,26.38
2022-08-17T07:50:29.416Z,26.72
2022-08-17T07:51:30.295Z,26.62
2022-08-17T07:52:51.458Z,26.91
2022-08-17T07:53:49.476Z,27.06
2022-08-17T07:54:46.123Z,27.04
2022-08-17T07:55:43.106Z,26.60
2022-08-17T07:56:42.744Z,26.69
2022-08-17T07:57:40.379Z,26.49
2022-08-17T07:58:37.155Z,26.61
2022-08-17T07:59:36.651Z,26.46
2022-08-17T08:00:33.856Z,26.27
2022-08-17T08:01:39.549Z,26.60
2022-08-17T08:02:42.400Z,26.51
2022-08-17T08:03:44.675Z,26.40
2022-08-17T08:05:08.770Z,26.28
2022-08-17T08:06:21.716Z,26.88
2022-08-17T08:07:20.578Z,26.39
2022-08-17T08:08:28.269Z,26.75
2022-08-17T08:10:02.415Z,27.27
2022-08-17T08:11:03.332Z,27.39
2022-08-17T08:12:20.559Z,27.18
2022-08-17T08:13:23.357Z,27.33
2022-08-17T08:14:29.638Z,27.62
2022-08-17T08:15:54.240Z,27.38
2022-08-17T08:17:05.263Z,27.65
2022-08-17T08:18:06.023Z,27.60
2022-08-17T08:19:02.921Z,26.88
2022-08-17T08:20:00.759Z,26.82
2022-08-17T08:21:36.149Z,27.44
2022-08-17T08:22:43.468Z,27.59
2022-08-17T08:24:04.151Z,27.22
2022-08-17T08:25:00.746Z,27.78
2022-08-17T08:26:00.479Z,27.01
2022-08-17T08:27:08.424Z,27.46
2022-08-17T08:28:21.679Z,27.34
2022-08-17T08:29:43.162Z,27.56
2022-08-17T08:30:47.860Z,27.51
2022-08-17T08:32:22.000Z,27.60
2022-08-17T08:33:44.621Z,28.11
2022-08-17T08:35:01.256Z,28.49
2022-08-17T08:36:03.420Z,28.06
2022-08-17T08:37:20.645Z,28.23
2022-08-17T08:38:34.578Z,28.66
2022-08-17T08:39:47.317Z,28.72
2022-08-17T08:40:52.782Z,28.84
2022-08-17T08:42:01.374Z,29.10
2022-08-17T08:43:19.578Z,28.65
2022-08-17T08:45:00.028Z,28.43
2022-08-17T08:46:19.657Z,28.95
2022-08-17T08:47:42.518Z,28.34
2022-08-17T08:48:58.179Z,29.02
2022-08-17T08:50:36.989Z,29.25
2022-08-17T08:51:47.181Z,29.24
2022-08-17T08:53:16.123Z,29.19
2022-08-17T08:54:40.544Z,29.38
2022-08-17T08:55:45.908Z,28.89
2022-08-17T08:57:34.161Z,28.92
2022-08-17T08:59:03.214Z,29.13
2022-08-17T09:00:24.851Z,29.05
2022-08-17T09:01:26.302Z,29.56
2022-08-17T09:03:07.429Z,30.09
2022-08-17T09:04:23.714Z,29.80
2022-08-17T09:06:00.216Z,29.77
2022-08-17T09:07:02.846Z,29.95
2022-08-17T09:08:17.635Z,30.12
2022-08-17T09:09:19.973Z,30.29
2022-08-17T09:10:26.812Z,30.25
2022-08-17T09:12:02.183Z,30.23
2022-08-17T09:13:09.517Z,30.19
2022-08-17T09:14:28.203Z,30.26
2022-08-17T09:15:41.594Z,30.08
2022-08-17T09:16:44.654Z,29.88
2022-08-17T09:19:00.840Z,29.20
2022-08-17T09:20:03.962Z,29.83
2022-08-17T09:21:18.093Z,30.25
2022-08-17T09:22:33.110Z,29.16
2022-08-17T09:23:42.475Z,29.75
2022-08-17T09:24:57.354Z,30.60
2022-08-17T09:26:23.017Z,30.88
2022-08-17T09:27:30.590Z,30.69
2022-08-17T09:28:40.386Z,29.28
2022-08-17T09:29:41.334Z,30.19
2022-08-17T09:30:50.694Z,30.84
2022-08-17T09:32:01.636Z,30.46
2022-08-17T09:33:02.289Z,30.52
2022-08-17T09:34:02.177Z,30.90
2022-08-17T09:35:05.756Z,31.00
2022-08-17T09:36:13.516Z,30.49
2022-08-17T09:37:23.657Z,30.59
2022-08-17T09:38:39.485Z,30.93
2022-08-17T09:39:43.358Z,31.54
2022-08-17T09:40:46.653Z,30.56
2022-08-17T09:41:51.996Z,30.43
2022-08-17T09:42:53.562Z,30.52
2022-08-17T09:44:02.511Z,31.42
2022-08-17T09:45:15.873Z,32.32
2022-08-17T09:46:22.163Z,32.86
2022-08-17T09:47:34.691Z,32.96
2022-08-17T09:48:58.341Z,32.35
2022-08-17T09:51:04.456Z,31.62
2022-08-17T09:52:27.176Z,31.87
2022-08-17T09:53:23.980Z,31.71
2022-08-17T09:54:39.059Z,31.57
2022-08-17T09:55:51.708Z,31.53
2022-08-17T09:57:11.499Z,31.63
2022-08-17T09:58:23.029Z,32.07
2022-08-17T09:59:52.125Z,31.97
2022-08-17T10:00:57.689Z,30.77
2022-08-17T10:02:32.184Z,31.08
2022-08-17T10:03:50.811Z,31.34
2022-08-17T10:05:09.770Z,30.81
2022-08-17T10:06:13.283Z,31.09
2022-08-17T10:07:36.803Z,31.02
2022-08-17T10:08:57.321Z,30.79
2022-08-17T10:10:19.777Z,29.38
2022-08-17T10:12:00.990Z,28.98
2022-08-17T10:13:36.089Z,29.07
2022-08-17T10:14:44.134Z,29.59
2022-08-17T10:15:55.404Z,29.92
2022-08-17T10:17:00.684Z,29.65
2022-08-17T10:18:22.197Z,29.73
2022-08-17T10:19:33.743Z,29.63
2022-08-17T10:20:37.165Z,29.64
2022-08-17T10:22:01.238Z,29.99
2022-08-17T10:23:56.105Z,29.75
2022-08-17T10:25:23.858Z,29.72
2022-08-17T10:26:25.324Z,29.51
2022-08-17T10:27:26.395Z,29.31
2022-08-17T10:28:30.428Z,29.27
2022-08-17T10:29:48.910Z,28.11
2022-08-17T10:31:16.754Z,26.41
2022-08-17T10:32:32.198Z,26.37
2022-08-17T10:34:10.343Z,25.95
2022-08-17T10:35:09.937Z,25.38
2022-08-17T10:36:14.755Z,25.75
2022-08-17T10:37:35.242Z,26.10
2022-08-17T10:38:37.283Z,25.66
2022-08-17T10:40:15.600Z,25.49
2022-08-17T10:41:40.169Z,25.04
2022-08-17T10:42:47.097Z,24.92
2022-08-17T10:43:57.834Z,25.00
2022-08-17T10:45:14.546Z,25.37
2022-08-17T10:46:31.410Z,25.61
2022-08-17T10:48:06.628Z,25.85
2022-08-17T10:49:19.171Z,25.50
2022-08-17T10:50:46.174Z,25.30
2022-08-17T10:52:04.115Z,24.87
2022-08-17T10:53:01.857Z,24.60
2022-08-17T10:54:01.454Z,25.06
2022-08-17T10:55:11.183Z,25.45
2022-08-17T10:56:14.159Z,26.29
2022-08-17T10:57:29.681Z,26.56
2022-08-17T10:58:38.361Z,26.72
2022-08-17T10:59:34.924Z,26.65
2022-08-17T11:00:44.011Z,26.76
2022-08-17T11:01:43.517Z,26.37
2022-08-17T11:02:57.246Z,25.99
2022-08-17T11:04:05.017Z,26.09
2022-08-17T11:06:01.276Z,26.48
2022-08-17T11:07:16.075Z,27.19
2022-08-17T11:08:27.947Z,27.30
2022-08-17T11:09:43.049Z,28.18
2022-08-17T11:10:52.310Z,29.09
2022-08-17T11:12:12.016Z,29.25
2022-08-17T11:13:21.812Z,29.64
2022-08-17T11:14:44.205Z,29.90
2022-08-17T11:15:59.411Z,30.33
2022-08-17T11:17:21.776Z,29.91
2022-08-17T11:18:34.112Z,29.69
2022-08-17T11:20:09.623Z,29.66
2022-08-17T11:21:18.265Z,29.34
2022-08-17T11:22:33.394Z,28.95
2022-08-17T11:24:08.813Z,29.17
2022-08-17T11:25:33.977Z,29.04
2022-08-17T11:26:33.589Z,28.56
2022-08-17T11:27:34.085Z,28.51
2022-08-17T11:28:46.164Z,28.57
2022-08-17T11:29:53.545Z,28.73
2022-08-17T11:30:59.151Z,28.52
2022-08-17T11:32:02.390Z,28.51
2022-08-17T11:32:59.658Z,28.83
2022-08-17T11:34:03.549Z,28.24
2022-08-17T11:35:22.142Z,28.00
2022-08-17T11:36:31.437Z,27.46
2022-08-17T11:37:41.746Z,26.97
2022-08-17T11:38:46.759Z,26.94
2022-08-17T11:40:05.225Z,27.24
2022-08-17T11:41:01.855Z,27.73
2022-08-17T11:42:11.998Z,27.94
2022-08-17T11:43:45.810Z,28.06
2022-08-17T11:45:31.574Z,27.72
2022-08-17T11:47:19.025Z,27.95
2022-08-17T11:48:38.907Z,27.65
2022-08-17T11:50:27.915Z,27.59
2022-08-17T11:52:01.198Z,28.51
2022-08-17T11:52:58.049Z,28.59
2022-08-17T11:54:14.735Z,28.65
2022-08-17T11:55:40.573Z,29.04
2022-08-17T11:56:47.178Z,29.86
2022-08-17T11:57:46.128Z,30.34
2022-08-17T11:58:45.977Z,30.43
2022-08-17T11:59:43.890Z,30.17
2022-08-17T12:00:49.692Z,29.67
2022-08-17T12:01:56.775Z,28.89
2022-08-17T12:03:22.467Z,28.96
2022-08-17T12:04:36.193Z,28.66
2022-08-17T12:05:34.647Z,28.85
2022-08-17T12:06:56.965Z,28.73
2022-08-17T12:08:05.923Z,28.52
2022-08-17T12:09:12.007Z,27.96
2022-08-17T12:10:12.243Z,27.80
2022-08-17T12:12:11.317Z,27.48
2022-08-17T12:12:44.227Z,26.96
2022-08-17T12:13:49.223Z,27.78
2022-08-17T12:15:11.553Z,27.68
2022-08-17T12:16:13.616Z,27.11
2022-08-17T12:17:14.209Z,27.52
2022-08-17T12:18:32.278Z,27.68
2022-08-17T12:19:29.771Z,27.56
2022-08-17T12:20:37.598Z,27.90
2022-08-17T12:21:41.696Z,27.35
2022-08-17T12:23:04.150Z,27.72
2022-08-17T12:24:44.788Z,27.29
2022-08-17T12:25:49.701Z,27.60
2022-08-17T12:27:01.853Z,27.72
2022-08-17T12:28:04.853Z,27.19
2022-08-17T12:29:18.132Z,27.29
2022-08-17T12:30:29.995Z,27.46
2022-08-17T12:31:31.241Z,27.50
2022-08-17T12:32:33.858Z,27.98
2022-08-17T12:33:30.960Z,27.84
2022-08-17T12:34:40.030Z,28.13
2022-08-17T12:35:39.024Z,27.90
2022-08-17T12:36:35.728Z,28.28
2022-08-17T12:37:35.409Z,28.03
2022-08-17T12:38:37.963Z,27.69
2022-08-17T12:39:34.998Z,27.65
2022-08-17T12:40:32.670Z,27.54
2022-08-17T12:41:40.823Z,28.19
2022-08-17T12:42:42.108Z,28.11
2022-08-17T12:43:38.807Z,27.81
2022-08-17T12:44:46.188Z,27.69
2022-08-17T12:45:57.117Z,27.75
2022-08-17T12:47:01.821Z,28.14
2022-08-17T12:48:07.926Z,28.55
2022-08-17T12:49:26.559Z,28.60
2022-08-17T12:50:29.798Z,28.52
2022-08-17T12:51:29.190Z,28.96
2022-08-17T12:52:29.143Z,29.19
2022-08-17T12:53:30.679Z,29.76
2022-08-17T12:54:42.420Z,30.25
2022-08-17T12:55:40.530Z,29.34
2022-08-17T12:56:37.335Z,29.30
2022-08-17T12:57:41.914Z,28.75
2022-08-17T12:58:48.584Z,29.14
2022-08-17T12:59:50.547Z,29.42
2022-08-17T13:00:50.704Z,29.12
2022-08-17T13:01:47.651Z,29.19
2022-08-17T13:02:48.765Z,29.07
2022-08-17T13:03:52.467Z,28.96
2022-08-17T13:04:49.594Z,28.80
2022-08-17T13:05:52.421Z,29.16
2022-08-17T13:06:51.793Z,29.54
2022-08-17T13:07:58.978Z,29.58
2022-08-17T13:08:56.279Z,28.63
2022-08-17T13:09:53.071Z,29.01
2022-08-17T13:11:18.333Z,28.95
2022-08-17T13:12:25.697Z,29.65
2022-08-17T13:13:44.233Z,29.69
2022-08-17T13:14:46.064Z,29.96
2022-08-17T13:15:55.806Z,29.75
2022-08-17T13:17:01.685Z,29.74
2022-08-17T13:18:04.483Z,29.71
2022-08-17T13:19:40.324Z,28.99
2022-08-17T13:20:38.078Z,29.31
2022-08-17T13:21:38.011Z,29.91
2022-08-17T13:22:34.953Z,30.79
2022-08-17T13:23:32.374Z,31.14
2022-08-17T13:24:38.532Z,30.71
2022-08-17T13:25:35.589Z,31.55
2022-08-17T13:26:32.595Z,31.69
2022-08-17T13:27:30.178Z,31.18
2022-08-17T13:28:30.618Z,31.16
2022-08-17T13:29:51.424Z,31.51
2022-08-17T13:30:50.026Z,30.42
2022-08-17T13:31:52.267Z,30.09
2022-08-17T13:32:54.001Z,30.05
2022-08-17T13:33:52.659Z,29.45
2022-08-17T13:35:12.900Z,29.72
2022-08-17T13:36:09.794Z,30.07
2022-08-17T13:37:32.795Z,30.33
2022-08-17T13:39:07.148Z,29.78
2022-08-17T13:40:09.711Z,29.94
2022-08-17T13:41:07.570Z,29.78
2022-08-17T13:42:51.700Z,30.34
2022-08-17T13:43:50.608Z,30.40
2022-08-17T13:44:47.358Z,30.67
2022-08-17T13:45:50.625Z,30.80
2022-08-17T13:46:52.483Z,30.40
2022-08-17T13:48:07.383Z,30.51
2022-08-17T13:49:09.788Z,30.67
2022-08-17T13:50:06.565Z,30.60
2022-08-17T13:51:11.905Z,29.88
2022-08-17T13:52:32.038Z,30.38
2022-08-17T13:53:31.572Z,30.11
2022-08-17T13:54:32.226Z,30.73
2022-08-17T13:55:32.204Z,30.32
2022-08-17T13:56:37.720Z,30.02
2022-08-17T13:57:36.561Z,29.96
2022-08-17T13:58:37.192Z,29.86
2022-08-17T13:59:54.333Z,30.17
2022-08-17T14:00:52.941Z,30.51
2022-08-17T14:01:54.114Z,30.36
2022-08-17T14:02:50.962Z,29.92
2022-08-17T14:03:47.662Z,30.33
2022-08-17T14:04:48.982Z,30.16
2022-08-17T14:05:46.208Z,30.47
2022-08-17T14:06:52.000Z,30.89
2022-08-17T14:07:56.411Z,30.81
2022-08-17T14:08:55.895Z,30.20
2022-08-17T14:09:58.434Z,30.35
2022-08-17T14:10:58.732Z,30.75
2022-08-17T14:11:58.214Z,30.85